M I D A S
Marine Information and Data Acquisition System
Tripno 1199 of the Zeeleeuw from 2006-12-12 07:46:21 to 2006-12-12 12:17:22
Back to CruiseResearch ActivitiesStationsMapUnderway DataData graphs

EquipmentUnitsComment
TimeDGPSUTC
LatitudeDGPSDM.mWGS84
LongitudeDGPSDM.mWGS84
HeadingGyrodeg 
SOGDGPSknotsSpeed over ground
COGDGPSdegCourse over ground
DepthEcho soundermeters200 kHz
Missing or incorrect values are displayed as -999
Navigation data collected by the RV Zeeleeuw from 2006-12-12 07:45:14 to 2006-12-12 13:19:31
                                                                                    Next 1000 lines
Time Latitude Longitude Heading SOG COG Depth
2006-12-12 07:46:28 51°13.619 2°56.022 113 4.2 291 -999
2006-12-12 07:46:33 51°13.621 2°56.013 113 4.5 292 -999
2006-12-12 07:46:38 51°13.624 2°56.003 113 4.9 291 -999
2006-12-12 07:46:43 51°13.626 2°55.993 113.3 5.1 292 -999
2006-12-12 07:46:48 51°13.629 2°55.982 114 5.2 293 -999
2006-12-12 07:46:53 51°13.632 2°55.972 115 5.1 293 -999
2006-12-12 07:46:58 51°13.635 2°55.962 115.3 5 295 -999
2006-12-12 07:47:03 51°13.638 2°55.952 115.4 4.9 293 -999
2006-12-12 07:47:08 51°13.64 2°55.942 115.3 4.9 293 -999
2006-12-12 07:47:13 51°13.643 2°55.932 115.1 5 294 -999
2006-12-12 07:47:18 51°13.646 2°55.922 115.6 5 293 -999
2006-12-12 07:47:23 51°13.649 2°55.911 116.4 5.2 294 -999
2006-12-12 07:47:28 51°13.652 2°55.901 116.9 5.4 294 -999
2006-12-12 07:47:33 51°13.655 2°55.89 118 5.5 294 -999
2006-12-12 07:47:38 51°13.658 2°55.879 119.1 5.3 294 -999
2006-12-12 07:47:43 51°13.661 2°55.869 120.6 5.1 295 -999
2006-12-12 07:47:48 51°13.664 2°55.859 121.9 5 296 -999
2006-12-12 07:47:53 51°13.667 2°55.85 124 4.8 299 -999
2006-12-12 07:47:58 51°13.671 2°55.841 125.9 4.7 301 -999
2006-12-12 07:48:03 51°13.674 2°55.832 128.9 4.6 303 -999
2006-12-12 07:48:08 51°13.678 2°55.824 131.1 4.6 305 -999
2006-12-12 07:48:13 51°13.682 2°55.816 132.4 4.6 306 -999
2006-12-12 07:48:18 51°13.686 2°55.808 133.8 4.5 308 10.2
2006-12-12 07:48:23 51°13.689 2°55.8 135.4 4.5 309 10.3
2006-12-12 07:48:28 51°13.693 2°55.792 136.6 4.5 311 10.9
2006-12-12 07:48:33 51°13.698 2°55.785 138.3 4.4 313 5.5
2006-12-12 07:48:38 51°13.702 2°55.778 140.2 4.3 315 -999
2006-12-12 07:48:43 51°13.706 2°55.771 142.4 4.4 316 6.3
2006-12-12 07:48:48 51°13.711 2°55.765 143.6 4.5 318 -999
2006-12-12 07:48:53 51°13.716 2°55.758 144.4 4.6 319 -999
2006-12-12 07:48:58 51°13.721 2°55.751 144.9 4.7 320 -999
2006-12-12 07:49:03 51°13.726 2°55.745 145.7 4.8 321 -999
2006-12-12 07:49:08 51°13.731 2°55.738 146.8 4.9 323 -999
2006-12-12 07:49:13 51°13.737 2°55.732 147.9 4.9 324 -999
2006-12-12 07:49:18 51°13.743 2°55.726 148.5 5 325 -999
2006-12-12 07:49:23 51°13.749 2°55.72 149.3 5 326 -999
2006-12-12 07:49:28 51°13.755 2°55.714 149.9 5.1 328 -999
2006-12-12 07:49:33 51°13.761 2°55.708 150.2 5.2 328 -999
2006-12-12 07:49:38 51°13.767 2°55.702 150.3 5.3 328 -999
2006-12-12 07:49:43 51°13.774 2°55.695 149.8 5.4 328 -999
2006-12-12 07:49:48 51°13.78 2°55.689 149.2 5.5 326 -999
2006-12-12 07:49:53 51°13.786 2°55.682 148.6 5.6 326 -999
2006-12-12 07:49:58 51°13.793 2°55.675 148.4 5.7 325 -999
2006-12-12 07:50:03 51°13.8 2°55.668 148.3 5.8 326 -999
2006-12-12 07:50:08 51°13.807 2°55.66 148.5 5.8 325 -999
2006-12-12 07:50:13 51°13.813 2°55.653 149.1 5.9 326 -999
2006-12-12 07:50:18 51°13.82 2°55.646 149.5 5.9 326 -999
2006-12-12 07:50:23 51°13.827 2°55.639 150.1 5.8 326 -999
2006-12-12 07:50:28 51°13.833 2°55.631 150.9 5.8 326 -999
2006-12-12 07:50:33 51°13.839 2°55.624 152.1 5.7 327 -999
2006-12-12 07:50:38 51°13.846 2°55.618 154.4 5.6 330 -999
2006-12-12 07:50:43 51°13.853 2°55.612 157.1 5.6 333 -999
2006-12-12 07:50:48 51°13.86 2°55.607 161.1 5.6 335 -999
2006-12-12 07:50:53 51°13.867 2°55.602 163.9 5.5 338 -999
2006-12-12 07:50:58 51°13.874 2°55.599 167.9 5.5 342 -999
2006-12-12 07:51:03 51°13.881 2°55.596 171.3 5.4 346 -999
2006-12-12 07:51:08 51°13.888 2°55.593 175.1 5.4 349 -999
2006-12-12 07:51:13 51°13.896 2°55.592 178.1 5.4 352 -999
2006-12-12 07:51:18 51°13.903 2°55.591 181.8 5.4 356 -999
2006-12-12 07:51:23 51°13.911 2°55.59 186.3 5.4 -999 -999
2006-12-12 07:51:28 51°13.918 2°55.591 189.9 5.4 4 -999
2006-12-12 07:51:33 51°13.925 2°55.593 193 5.1 7 -999
2006-12-12 07:51:38 51°13.931 2°55.594 197 4.8 10 -999
2006-12-12 07:51:43 51°13.937 2°55.597 201 4.5 14 -999
2006-12-12 07:51:48 51°13.943 2°55.599 203.8 4.3 15 -999
2006-12-12 07:51:53 51°13.949 2°55.602 205.7 4.1 17 11.2
2006-12-12 07:51:58 51°13.954 2°55.605 207 3.7 19 10.6
2006-12-12 07:52:03 51°13.958 2°55.607 208.9 3.4 21 10.5
2006-12-12 07:52:08 51°13.962 2°55.61 211.4 3 24 10.5
2006-12-12 07:52:13 51°13.965 2°55.612 214.1 2.5 24 10.7
2006-12-12 07:52:17 51°13.967 2°55.614 217.3 2 26 10.4
2006-12-12 07:52:22 51°13.969 2°55.615 220.1 1.4 20 6
2006-12-12 07:52:27 51°13.971 2°55.616 223 0.8 8 5.3
2006-12-12 07:52:33 51°13.972 2°55.615 227.3 0.4 326 -999
2006-12-12 07:52:38 51°13.972 2°55.614 231.3 0.6 289 10.4
2006-12-12 07:52:43 51°13.972 2°55.612 236.7 0.9 271 10.4
2006-12-12 07:52:48 51°13.972 2°55.609 241.4 1.2 270 10.4
2006-12-12 07:52:53 51°13.972 2°55.606 248.8 1.5 270 10.5
2006-12-12 07:52:58 51°13.972 2°55.602 254.9 1.7 272 10.5
2006-12-12 07:53:02 51°13.972 2°55.599 260.9 2 276 10.6
2006-12-12 07:53:07 51°13.972 2°55.594 267 2.2 279 10.6
2006-12-12 07:53:12 51°13.973 2°55.589 273 2.4 284 10.5
2006-12-12 07:53:17 51°13.974 2°55.583 279.1 2.7 288 10.6
2006-12-12 07:53:22 51°13.976 2°55.577 285.1 3 294 10.5
2006-12-12 07:53:27 51°13.978 2°55.571 291.3 3.3 299 10.6
2006-12-12 07:53:32 51°13.981 2°55.564 297.7 3.6 305 10.4
2006-12-12 07:53:37 51°13.984 2°55.558 304.7 4 311 10.6
2006-12-12 07:53:42 51°13.989 2°55.551 312.2 4.5 318 10.7
2006-12-12 07:53:47 51°13.994 2°55.544 319.3 5 321 10.7
2006-12-12 07:53:52 51°14.001 2°55.537 325.2 5.6 325 10.8
2006-12-12 07:53:56 51°14.006 2°55.531 329.2 6.4 325 10.9
2006-12-12 07:54:01 51°14.014 2°55.522 330 7.2 325 11.1
2006-12-12 07:54:06 51°14.024 2°55.512 329.8 8 326 11
2006-12-12 07:54:11 51°14.034 2°55.502 329.8 8.8 326 11.2
2006-12-12 07:54:16 51°14.044 2°55.491 330.7 9.3 328 11.2
2006-12-12 07:54:21 51°14.056 2°55.479 332.4 9.8 328 11.2
2006-12-12 07:54:26 51°14.068 2°55.468 333.1 10.3 330 11.6
2006-12-12 07:54:31 51°14.081 2°55.457 334.5 10.7 331 11.2
2006-12-12 07:54:36 51°14.095 2°55.446 336.6 11 333 11.3
2006-12-12 07:54:41 51°14.109 2°55.434 337.7 11.4 333 11.3
2006-12-12 07:54:45 51°14.121 2°55.425 337.9 11.7 332 11.2
2006-12-12 07:54:51 51°14.138 2°55.409 337.2 12 332 11.3
2006-12-12 07:54:56 51°14.153 2°55.396 337.1 12.3 331 11.3
2006-12-12 07:55:00 51°14.165 2°55.385 336 12.6 329 11.3
2006-12-12 07:55:05 51°14.18 2°55.371 334.9 12.7 329 11.3
2006-12-12 07:55:10 51°14.195 2°55.355 333.8 12.8 326 11.4
2006-12-12 07:55:15 51°14.209 2°55.338 331.5 12.9 324 11.3
2006-12-12 07:55:20 51°14.224 2°55.321 329.5 13 323 11.3
2006-12-12 07:55:25 51°14.238 2°55.303 328.2 13 320 12.1
2006-12-12 07:55:30 51°14.251 2°55.284 325.3 13.1 318 11.3
2006-12-12 07:55:34 51°14.261 2°55.267 322.4 13.1 315 11.2
2006-12-12 07:55:40 51°14.277 2°55.242 320.6 13.1 315 11.2
2006-12-12 07:55:45 51°14.289 2°55.221 319.5 13.2 313 11.3
2006-12-12 07:55:49 51°14.299 2°55.204 318.6 13.2 313 11.1
2006-12-12 07:55:54 51°14.311 2°55.182 317.1 13.3 311 11.1
2006-12-12 07:55:59 51°14.323 2°55.16 316.4 13.3 311 11.3
2006-12-12 07:56:05 51°14.338 2°55.133 315.8 13.3 312 11.3
2006-12-12 07:56:10 51°14.35 2°55.111 316.4 13.3 312 10.9
2006-12-12 07:56:14 51°14.361 2°55.094 317.1 13.4 313 11.2
2006-12-12 07:56:20 51°14.376 2°55.068 318.2 13.4 314 11.2
2006-12-12 07:56:25 51°14.389 2°55.047 319.3 13.4 315 11.2
2006-12-12 07:56:30 51°14.403 2°55.027 320.4 13.6 318 11.3
2006-12-12 07:56:34 51°14.415 2°55.012 323.7 13.7 322 11.3
2006-12-12 07:56:40 51°14.433 2°54.99 326.6 13.7 324 11.2
2006-12-12 07:56:45 51°14.45 2°54.974 329.7 13.9 327 11
2006-12-12 07:56:50 51°14.466 2°54.957 331 13.9 326 11
2006-12-12 07:56:54 51°14.479 2°54.944 332.4 13.8 328 10.7
2006-12-12 07:57:00 51°14.498 2°54.924 332.6 13.8 327 10.5
2006-12-12 07:57:04 51°14.511 2°54.911 332 13.9 328 10.5
2006-12-12 07:57:10 51°14.531 2°54.891 332.4 13.9 329 10.3
2006-12-12 07:57:15 51°14.547 2°54.876 333.3 13.8 330 10.3
2006-12-12 07:57:20 51°14.564 2°54.86 334.5 13.9 331 10.4
2006-12-12 07:57:24 51°14.577 2°54.848 335.7 13.9 331 10.2
2006-12-12 07:57:29 51°14.594 2°54.833 335.3 14 330 10.3
2006-12-12 07:57:35 51°14.615 2°54.814 333.8 14 329 10.2
2006-12-12 07:57:40 51°14.631 2°54.798 333.3 14 329 10
2006-12-12 07:57:44 51°14.645 2°54.786 333.5 13.9 330 10.1
2006-12-12 07:57:49 51°14.662 2°54.771 334 14.1 332 10.2
2006-12-12 07:57:55 51°14.683 2°54.754 335.3 14.1 333 10.1
2006-12-12 07:58:00 51°14.7 2°54.74 336.4 14 333 10.2
2006-12-12 07:58:05 51°14.718 2°54.726 337.5 14.1 334 10.1
2006-12-12 07:58:09 51°14.732 2°54.716 338.7 14.2 335 10.1
2006-12-12 07:58:14 51°14.749 2°54.702 338.8 14.1 334 10.3
2006-12-12 07:58:20 51°14.771 2°54.685 338.1 14.2 333 10.2
2006-12-12 07:58:25 51°14.788 2°54.67 337.5 14.2 332 10.2
2006-12-12 07:58:30 51°14.805 2°54.656 337 14.1 332 10.4
2006-12-12 07:58:34 51°14.819 2°54.644 335.7 14.2 331 10.2
2006-12-12 07:58:40 51°14.839 2°54.625 335.1 14.1 330 10.3
2006-12-12 07:58:45 51°14.856 2°54.609 334.4 14.1 330 10.5
2006-12-12 07:58:49 51°14.869 2°54.597 333.8 14.1 330 10.3
2006-12-12 07:58:55 51°14.889 2°54.578 333.8 14 330 10.1
2006-12-12 07:59:00 51°14.906 2°54.563 334.1 14.1 331 9.8
2006-12-12 07:59:05 51°14.923 2°54.548 334.4 13.9 331 10.5
2006-12-12 07:59:10 51°14.94 2°54.532 334.5 13.9 330 10
2006-12-12 07:59:14 51°14.953 2°54.52 334.4 13.9 330 10
2006-12-12 07:59:20 51°14.973 2°54.501 333.8 13.9 329 9.8
2006-12-12 07:59:24 51°14.986 2°54.488 333.8 14 329 9.6
2006-12-12 07:59:30 51°15.006 2°54.47 333.2 13.9 329 9.5
2006-12-12 07:59:35 51°15.022 2°54.455 333.4 13.8 330 9.5
2006-12-12 07:59:40 51°15.039 2°54.439 333.8 13.9 330 9.4
2006-12-12 07:59:44 51°15.052 2°54.427 334.3 13.8 330 9.5
2006-12-12 07:59:49 51°15.069 2°54.412 334.5 13.9 330 9.6
2006-12-12 07:59:55 51°15.089 2°54.394 334.5 13.8 330 9.3
2006-12-12 08:00:00 51°15.106 2°54.378 334.4 13.8 330 9.3
2006-12-12 08:00:04 51°15.119 2°54.366 334.2 13.9 330 9.4
2006-12-12 08:00:09 51°15.136 2°54.351 334.2 14 330 9.6
2006-12-12 08:00:14 51°15.153 2°54.335 334.1 14 331 9.7
2006-12-12 08:00:20 51°15.173 2°54.317 334.4 14.1 330 9.6
2006-12-12 08:00:25 51°15.19 2°54.301 334.5 14.1 330 9.7
2006-12-12 08:00:29 51°15.203 2°54.289 334.4 14.1 330 9.8
2006-12-12 08:00:34 51°15.22 2°54.273 334.2 14.2 330 10
2006-12-12 08:00:40 51°15.24 2°54.254 334.5 14.1 329 9.9
2006-12-12 08:00:45 51°15.257 2°54.238 334.4 14.1 330 9.9
2006-12-12 08:00:50 51°15.274 2°54.222 334.1 14.1 330 10.3
2006-12-12 08:00:54 51°15.287 2°54.209 334.3 14.1 328 10.1
2006-12-12 08:01:00 51°15.307 2°54.191 334.4 14 331 10
2006-12-12 08:01:04 51°15.321 2°54.177 334.6 14 328 10.3
2006-12-12 08:01:10 51°15.341 2°54.159 334.5 14.1 331 10
2006-12-12 08:01:14 51°15.354 2°54.146 334.6 14.1 329 10.2
2006-12-12 08:01:20 51°15.375 2°54.128 335 14.1 331 10.3
2006-12-12 08:01:25 51°15.392 2°54.112 335.1 14.2 329 10.4
2006-12-12 08:01:30 51°15.409 2°54.096 334.8 14.1 330 10.4
2006-12-12 08:01:34 51°15.423 2°54.083 334.7 14.1 329 10.8
2006-12-12 08:01:40 51°15.443 2°54.065 334.5 14.2 331 10.5
2006-12-12 08:01:44 51°15.456 2°54.052 335.1 14.1 330 10.6
2006-12-12 08:01:50 51°15.477 2°54.034 335.1 14.1 330 10.7
2006-12-12 08:01:55 51°15.494 2°54.018 334.9 14.1 330 10.8
2006-12-12 08:02:00 51°15.51 2°54.002 334.6 14.2 330 11.1
2006-12-12 08:02:04 51°15.524 2°53.99 335.3 14 330 10.9
2006-12-12 08:02:09 51°15.541 2°53.975 335.5 14 331 11.1
2006-12-12 08:02:15 51°15.561 2°53.956 335.7 14 330 11
2006-12-12 08:02:20 51°15.578 2°53.941 336 14.1 331 11.1
2006-12-12 08:02:24 51°15.591 2°53.928 335.8 14 330 11
2006-12-12 08:02:29 51°15.608 2°53.914 336.2 14 331 11.3
2006-12-12 08:02:34 51°15.625 2°53.898 335.8 13.9 331 11.3
2006-12-12 08:02:40 51°15.646 2°53.88 336.1 14.1 331 11.2
2006-12-12 08:02:45 51°15.662 2°53.866 336.3 13.8 331 11.4
2006-12-12 08:02:50 51°15.679 2°53.851 336.2 13.9 330 11.2
2006-12-12 08:02:54 51°15.693 2°53.838 336 13.9 331 11.4
2006-12-12 08:02:59 51°15.709 2°53.823 336 14 330 11.6
2006-12-12 08:03:04 51°15.726 2°53.809 335.9 13.9 331 11.4
2006-12-12 08:03:10 51°15.746 2°53.791 336 13.9 331 11.7
2006-12-12 08:03:14 51°15.76 2°53.778 336.4 13.9 330 11.5
2006-12-12 08:03:20 51°15.78 2°53.761 336.2 13.8 332 11.8
2006-12-12 08:03:25 51°15.797 2°53.746 336.3 13.8 332 11.6
2006-12-12 08:03:30 51°15.814 2°53.732 336.4 13.9 332 11.6
2006-12-12 08:03:35 51°15.831 2°53.718 336.6 13.6 332 12
2006-12-12 08:03:40 51°15.847 2°53.703 336.7 13.7 330 11.6
2006-12-12 08:03:44 51°15.86 2°53.691 335.7 13.8 331 11.8
2006-12-12 08:03:49 51°15.877 2°53.676 335.5 13.9 330 12
2006-12-12 08:03:54 51°15.894 2°53.66 335.3 13.8 330 12
2006-12-12 08:04:00 51°15.914 2°53.642 335 13.9 330 11.9
2006-12-12 08:04:05 51°15.93 2°53.626 334.4 13.9 330 12.2
2006-12-12 08:04:10 51°15.947 2°53.611 335.1 13.8 330 12
2006-12-12 08:04:15 51°15.964 2°53.596 335 14 331 12.1
2006-12-12 08:04:20 51°15.981 2°53.581 335.3 14.1 331 12.1
2006-12-12 08:04:24 51°15.995 2°53.569 335.3 13.9 332 12.5
2006-12-12 08:04:29 51°16.011 2°53.554 335.1 13.8 331 11.9
2006-12-12 08:04:35 51°16.032 2°53.537 335.5 13.9 331 12.2
2006-12-12 08:04:40 51°16.048 2°53.522 335.3 13.9 331 12.2
2006-12-12 08:04:44 51°16.062 2°53.51 335.2 14 331 12.4
2006-12-12 08:04:50 51°16.082 2°53.491 335.4 13.9 330 12.3
2006-12-12 08:04:54 51°16.095 2°53.479 334.8 13.9 330 12.3
2006-12-12 08:05:00 51°16.116 2°53.46 334.6 14 330 12.5
2006-12-12 08:05:05 51°16.133 2°53.444 334.2 14.1 330 12.5
2006-12-12 08:05:10 51°16.149 2°53.429 334.6 13.9 330 12.6
2006-12-12 08:05:14 51°16.163 2°53.417 334.9 14.1 331 12.5
2006-12-12 08:05:20 51°16.183 2°53.398 335.3 14 330 12.5
2006-12-12 08:05:25 51°16.2 2°53.383 335.2 14 330 12.9
2006-12-12 08:05:30 51°16.216 2°53.368 334.6 14 330 12.5
2006-12-12 08:05:34 51°16.23 2°53.355 334.8 13.9 330 12.8
2006-12-12 08:05:40 51°16.25 2°53.337 334.6 13.9 330 12.5
2006-12-12 08:05:44 51°16.263 2°53.325 334.9 14 331 12.6
2006-12-12 08:05:50 51°16.283 2°53.306 334.9 13.8 330 12.7
2006-12-12 08:05:55 51°16.3 2°53.292 334.8 13.8 331 12.6
2006-12-12 08:06:00 51°16.317 2°53.276 335.4 13.9 329 12.9
2006-12-12 08:06:04 51°16.33 2°53.265 335.3 13.7 332 12.7
2006-12-12 08:06:09 51°16.347 2°53.25 335.8 13.8 331 12.9
2006-12-12 08:06:15 51°16.367 2°53.232 336 13.8 332 12.5
2006-12-12 08:06:20 51°16.384 2°53.217 336 13.8 331 12.8
2006-12-12 08:06:25 51°16.4 2°53.203 336 13.8 332 12.6
2006-12-12 08:06:30 51°16.417 2°53.188 336.3 13.9 332 12.8
2006-12-12 08:06:35 51°16.434 2°53.173 336.2 14 331 12.8
2006-12-12 08:06:40 51°16.451 2°53.159 336 14 331 12.7
2006-12-12 08:06:44 51°16.465 2°53.147 336 13.9 331 12.7
2006-12-12 08:06:49 51°16.482 2°53.131 336 13.9 331 12.6
2006-12-12 08:06:54 51°16.499 2°53.117 336 13.9 332 12.7
2006-12-12 08:07:00 51°16.519 2°53.1 336.1 13.8 332 12.5
2006-12-12 08:07:04 51°16.533 2°53.087 336.1 13.9 331 12.5
2006-12-12 08:07:10 51°16.553 2°53.07 336.5 13.9 332 12.5
2006-12-12 08:07:14 51°16.567 2°53.058 336.2 14 332 12.4
2006-12-12 08:07:20 51°16.587 2°53.041 336.4 14 332 12.4
2006-12-12 08:07:25 51°16.604 2°53.026 336.2 13.9 332 12.1
2006-12-12 08:07:29 51°16.618 2°53.014 336.3 14.1 331 12.2
2006-12-12 08:07:35 51°16.639 2°52.996 335.9 14.1 332 12.4
2006-12-12 08:07:40 51°16.656 2°52.982 336.1 14 333 11.8
2006-12-12 08:07:45 51°16.673 2°52.968 337.1 14 333 12.1
2006-12-12 08:07:49 51°16.687 2°52.956 336.4 13.8 332 11.7
2006-12-12 08:07:54 51°16.704 2°52.943 336.9 13.9 333 11.7
2006-12-12 08:08:00 51°16.725 2°52.926 336.5 13.8 334 11.9
2006-12-12 08:08:05 51°16.741 2°52.912 336.4 13.9 332 11.4
2006-12-12 08:08:10 51°16.758 2°52.897 336.5 13.9 332 11.3
2006-12-12 08:08:14 51°16.771 2°52.885 336 13.8 332 10.8
2006-12-12 08:08:20 51°16.791 2°52.868 335.9 13.8 332 10.4
2006-12-12 08:08:25 51°16.809 2°52.854 336.1 13.7 333 10.5
2006-12-12 08:08:30 51°16.825 2°52.84 336.2 13.8 332 10
2006-12-12 08:08:34 51°16.839 2°52.828 336.9 13.7 332 10
2006-12-12 08:08:40 51°16.859 2°52.81 336 13.9 331 9.9
2006-12-12 08:08:45 51°16.876 2°52.796 335.7 13.8 331 10.1
2006-12-12 08:08:50 51°16.893 2°52.781 335.9 13.9 331 10.1
2006-12-12 08:08:55 51°16.909 2°52.766 336 14 331 10.3
2006-12-12 08:09:00 51°16.926 2°52.751 335.3 14 330 10.3
2006-12-12 08:09:05 51°16.943 2°52.736 335.6 14 331 10.3
2006-12-12 08:09:10 51°16.96 2°52.721 335.7 14.1 331 10.4
2006-12-12 08:09:15 51°16.978 2°52.707 337.2 14.1 334 10.8
2006-12-12 08:09:20 51°16.996 2°52.694 338.7 14.2 335 11
2006-12-12 08:09:24 51°17.01 2°52.685 341 14.3 337 10.9
2006-12-12 08:09:30 51°17.033 2°52.671 342.3 14.2 340 11
2006-12-12 08:09:34 51°17.047 2°52.662 344.8 14.1 339 10.7
2006-12-12 08:09:40 51°17.07 2°52.653 347.6 14.2 346 10.4
2006-12-12 08:09:45 51°17.089 2°52.644 349.2 14.2 344 10.6
2006-12-12 08:09:49 51°17.104 2°52.639 350.7 14 351 10.2
2006-12-12 08:09:55 51°17.127 2°52.632 355.2 14 349 9.7
2006-12-12 08:10:00 51°17.146 2°52.629 355.6 13.9 353 10.6
2006-12-12 08:10:05 51°17.165 2°52.624 356.9 13.9 352 10.1
2006-12-12 08:10:10 51°17.184 2°52.619 358.5 14.1 350 10.6
2006-12-12 08:10:14 51°17.2 2°52.616 358.1 14.2 352 10.6
2006-12-12 08:10:20 51°17.223 2°52.61 357.6 14.1 352 10.9
2006-12-12 08:10:24 51°17.238 2°52.609 359 13.7 355 10.7
2006-12-12 08:10:30 51°17.261 2°52.606 1 13.9 356 10.7
2006-12-12 08:10:35 51°17.281 2°52.604 2.4 14 356 10.6
2006-12-12 08:10:40 51°17.3 2°52.602 2.3 14.1 357 10.8
2006-12-12 08:10:44 51°17.316 2°52.601 2 14.1 357 10.9
2006-12-12 08:10:50 51°17.339 2°52.599 2.8 14 357 11.1
2006-12-12 08:10:54 51°17.355 2°52.598 3.6 13.9 357 10.7
2006-12-12 08:11:00 51°17.378 2°52.596 4.3 14.1 357 10.8
2006-12-12 08:11:05 51°17.398 2°52.595 3.6 14 358 11.1
2006-12-12 08:11:10 51°17.417 2°52.595 4.9 14.2 -999 10.5
2006-12-12 08:11:15 51°17.437 2°52.595 5.5 14.3 -999 10.9
2006-12-12 08:11:20 51°17.457 2°52.593 3.7 14.1 357 10.6
2006-12-12 08:11:25 51°17.476 2°52.591 4.1 14 356 10.9
2006-12-12 08:11:29 51°17.491 2°52.591 3.6 14 359 10.4
2006-12-12 08:11:34 51°17.511 2°52.589 4.7 14.1 357 10.8
2006-12-12 08:11:40 51°17.534 2°52.587 4.3 14.1 357 10.8
2006-12-12 08:11:45 51°17.554 2°52.588 4.2 14.1 -999 11.4
2006-12-12 08:11:50 51°17.574 2°52.585 4.1 14 356 11.2
2006-12-12 08:11:54 51°17.589 2°52.584 4 14.1 358 11.3
2006-12-12 08:12:00 51°17.613 2°52.583 4.3 14 357 11.2
2006-12-12 08:12:05 51°17.632 2°52.583 4.9 14.1 359 11.3
2006-12-12 08:12:10 51°17.652 2°52.581 4.4 14.2 358 11.3
2006-12-12 08:12:14 51°17.667 2°52.58 4.4 13.8 359 11.5
2006-12-12 08:12:20 51°17.69 2°52.579 5.6 13.9 358 10.9
2006-12-12 08:12:25 51°17.71 2°52.578 4.3 14 359 10.8
2006-12-12 08:12:30 51°17.729 2°52.577 5.3 14.1 357 11.2
2006-12-12 08:12:34 51°17.745 2°52.576 4.8 14.2 358 11
2006-12-12 08:12:40 51°17.769 2°52.575 3.8 14 358 11.1
2006-12-12 08:12:45 51°17.788 2°52.575 5.1 14 -999 11
2006-12-12 08:12:50 51°17.808 2°52.576 7.3 14.1 1 11.1
2006-12-12 08:12:54 51°17.823 2°52.575 6.9 14.2 3 11.1
2006-12-12 08:13:00 51°17.847 2°52.576 9.3 14.2 359 11
2006-12-12 08:13:05 51°17.866 2°52.579 8.1 14.3 6 11.1
2006-12-12 08:13:09 51°17.882 2°52.579 10.1 14.2 359 10.9
2006-12-12 08:13:14 51°17.902 2°52.581 10.1 14.2 7 11.2
2006-12-12 08:13:20 51°17.925 2°52.583 11.6 14.2 1 11.2
2006-12-12 08:13:25 51°17.945 2°52.587 9.5 14.3 7 11.5
2006-12-12 08:13:30 51°17.965 2°52.589 12.2 14.3 2 11.4
2006-12-12 08:13:35 51°17.984 2°52.594 12.6 14 10 11
2006-12-12 08:13:40 51°18.003 2°52.597 14.1 14 5 11.3
2006-12-12 08:13:45 51°18.022 2°52.603 15 14.1 11 11.4
2006-12-12 08:13:50 51°18.042 2°52.608 15.6 14 10 11.3
2006-12-12 08:13:54 51°18.057 2°52.614 17.8 14.2 14 10.9
2006-12-12 08:14:00 51°18.079 2°52.625 19.2 14.2 17 11.2
2006-12-12 08:14:04 51°18.094 2°52.635 23.5 13.9 26 11.1
2006-12-12 08:14:10 51°18.114 2°52.652 31.1 14 29 10.9
2006-12-12 08:14:14 51°18.128 2°52.663 33.8 14 29 10.9
2006-12-12 08:14:20 51°18.148 2°52.683 36.3 14 33 11.2
2006-12-12 08:14:25 51°18.162 2°52.704 43.3 14.2 40 11.6
2006-12-12 08:14:30 51°18.179 2°52.722 44.8 13.9 36 11.8
2006-12-12 08:14:35 51°18.192 2°52.744 46.5 13.9 44 11.8
2006-12-12 08:14:40 51°18.207 2°52.764 48.7 13.8 42 11.9
2006-12-12 08:14:45 51°18.219 2°52.788 53.2 13.8 51 12
2006-12-12 08:14:49 51°18.23 2°52.804 54.4 14 42 11.9
2006-12-12 08:14:54 51°18.244 2°52.827 52.3 14.3 45 11.9
2006-12-12 08:15:00 51°18.262 2°52.851 51.6 14.3 40 12.1
2006-12-12 08:15:04 51°18.273 2°52.87 49.9 14 48 12
2006-12-12 08:15:10 51°18.291 2°52.893 50.9 13.9 38 11.8
2006-12-12 08:15:15 51°18.303 2°52.917 50.9 14.2 47 11.9
2006-12-12 08:15:20 51°18.32 2°52.935 50.6 14.3 38 11.7
2006-12-12 08:15:24 51°18.331 2°52.952 47.8 13.7 43 12
2006-12-12 08:15:30 51°18.347 2°52.979 51.7 14.4 43 12
2006-12-12 08:15:35 51°18.365 2°52.994 46.4 14.1 31 11.9
2006-12-12 08:15:40 51°18.377 2°53.018 42.8 14.1 49 11.6
2006-12-12 08:15:44 51°18.391 2°53.031 49.3 14.3 33 11.7
2006-12-12 08:15:50 51°18.407 2°53.059 47.1 14.3 48 11.6
2006-12-12 08:15:54 51°18.421 2°53.071 46.9 14.1 33 11.8
2006-12-12 08:16:00 51°18.437 2°53.098 46.4 14.1 45 11.9
2006-12-12 08:16:05 51°18.454 2°53.115 48.7 14.1 33 12.2
2006-12-12 08:16:10 51°18.468 2°53.135 43.8 13.9 43 11.9
2006-12-12 08:16:14 51°18.48 2°53.152 49.6 14.4 39 12
2006-12-12 08:16:20 51°18.498 2°53.176 48.2 14.1 38 12.4
2006-12-12 08:16:25 51°18.513 2°53.197 46.8 14.1 45 12.1
2006-12-12 08:16:30 51°18.529 2°53.214 48.7 14.3 33 12.2
2006-12-12 08:16:34 51°18.54 2°53.231 44.8 14 41 12.1
2006-12-12 08:16:40 51°18.559 2°53.255 47.3 14.2 38 12.2
2006-12-12 08:16:45 51°18.575 2°53.273 45.8 14.1 37 12.2
2006-12-12 08:16:50 51°18.589 2°53.295 46.8 14.3 40 12.2
2006-12-12 08:16:55 51°18.606 2°53.312 45.8 14.3 37 12.1
2006-12-12 08:17:00 51°18.621 2°53.332 45.9 14 38 12.3
2006-12-12 08:17:05 51°18.636 2°53.351 45.5 13.7 41 12.1
2006-12-12 08:17:09 51°18.648 2°53.366 46.4 13.9 37 12.1
2006-12-12 08:17:15 51°18.666 2°53.39 46.9 13.9 40 12.2
2006-12-12 08:17:20 51°18.681 2°53.411 47.2 14.3 40 12.1
2006-12-12 08:17:24 51°18.695 2°53.424 45.4 14.3 36 11.9
2006-12-12 08:17:30 51°18.712 2°53.449 45.6 14.1 40 11.9
2006-12-12 08:17:34 51°18.724 2°53.465 47.1 14 39 12.2
2006-12-12 08:17:40 51°18.742 2°53.489 47.1 14.2 42 12
2006-12-12 08:17:45 51°18.757 2°53.508 47.6 14.1 39 12.2
2006-12-12 08:17:50 51°18.771 2°53.53 48.9 14 43 12.4
2006-12-12 08:17:55 51°18.787 2°53.549 48.7 14.2 37 12.3
2006-12-12 08:18:00 51°18.803 2°53.566 45.4 14 33 12.1
2006-12-12 08:18:04 51°18.814 2°53.583 46.1 13.8 44 12.2
2006-12-12 08:18:10 51°18.832 2°53.606 47.6 13.9 36 12.3
2006-12-12 08:18:15 51°18.846 2°53.628 47.5 14.3 42 12.4
2006-12-12 08:18:20 51°18.862 2°53.645 45 14 37 12.4
2006-12-12 08:18:25 51°18.876 2°53.666 48.3 13.9 41 12.6
2006-12-12 08:18:29 51°18.889 2°53.681 47.2 14.1 37 12.6
2006-12-12 08:18:35 51°18.908 2°53.703 44 13.9 38 12.3
2006-12-12 08:18:40 51°18.924 2°53.722 46.3 14.4 37 12.5
2006-12-12 08:18:45 51°18.94 2°53.741 44.6 14.5 37 12.6
2006-12-12 08:18:49 51°18.952 2°53.755 43.7 13.8 36 12.5
2006-12-12 08:18:54 51°18.967 2°53.775 45.7 14 42 12.6
2006-12-12 08:19:00 51°18.986 2°53.796 46.9 14.3 31 12.7
2006-12-12 08:19:05 51°19.001 2°53.816 42.2 14 39 12.6
2006-12-12 08:19:10 51°19.017 2°53.835 45 13.9 39 12.4
2006-12-12 08:19:14 51°19.029 2°53.85 47.3 14 35 12.7
2006-12-12 08:19:20 51°19.048 2°53.871 42.9 14.1 40 12.5
2006-12-12 08:19:25 51°19.064 2°53.888 45.7 14 31 12.7
2006-12-12 08:19:30 51°19.079 2°53.908 41.5 14.1 39 12.4
2006-12-12 08:19:34 51°19.092 2°53.923 45 14.4 34 12.5
2006-12-12 08:19:40 51°19.112 2°53.943 41.2 13.9 36 12.4
2006-12-12 08:19:45 51°19.126 2°53.963 44.9 13.9 39 12.7
2006-12-12 08:19:50 51°19.142 2°53.981 45.6 14.1 36 12.8
2006-12-12 08:19:54 51°19.155 2°53.997 45.2 14.2 39 12.9
2006-12-12 08:20:00 51°19.174 2°54.018 45.7 14 33 12.9
2006-12-12 08:20:05 51°19.188 2°54.039 44.2 14.3 43 12.9
2006-12-12 08:20:10 51°19.206 2°54.053 45.5 14.1 28 12.9
2006-12-12 08:20:15 51°19.221 2°54.074 41.3 14.1 39 12.7
2006-12-12 08:20:20 51°19.238 2°54.089 42 13.9 33 12.8
2006-12-12 08:20:24 51°19.248 2°54.108 45.1 14.3 42 12.8
2006-12-12 08:20:29 51°19.266 2°54.122 43.3 14.3 32 12.4
2006-12-12 08:20:35 51°19.285 2°54.146 43.7 14.2 34 12.5
2006-12-12 08:20:40 51°19.301 2°54.163 40.6 14.1 36 12.6
2006-12-12 08:20:45 51°19.317 2°54.181 43.6 13.8 35 12.7
2006-12-12 08:20:49 51°19.328 2°54.197 45.2 14 41 13
2006-12-12 08:20:54 51°19.345 2°54.214 44 14.2 34 12.7
2006-12-12 08:21:00 51°19.363 2°54.237 43.9 14.1 36 12.9
2006-12-12 08:21:05 51°19.377 2°54.258 45.1 13.7 43 12.9
2006-12-12 08:21:10 51°19.392 2°54.276 49.3 13.8 36 13.1
2006-12-12 08:21:14 51°19.404 2°54.293 46.7 14.1 40 13.1
2006-12-12 08:21:20 51°19.424 2°54.313 44.4 14 34 12.6
2006-12-12 08:21:25 51°19.438 2°54.333 45.3 13.8 40 12.8
2006-12-12 08:21:30 51°19.453 2°54.352 45.7 13.9 37 12.7
2006-12-12 08:21:34 51°19.465 2°54.367 45.8 13.7 39 12.9
2006-12-12 08:21:40 51°19.482 2°54.392 47.7 14 42 12.9
2006-12-12 08:21:45 51°19.499 2°54.409 46.8 14.1 34 13
2006-12-12 08:21:50 51°19.514 2°54.429 45 14 39 13
2006-12-12 08:21:54 51°19.527 2°54.443 44.6 14.1 35 12.8
2006-12-12 08:22:00 51°19.545 2°54.466 44.2 14 40 13.2
2006-12-12 08:22:05 51°19.561 2°54.485 47.1 14.1 37 13.1
2006-12-12 08:22:10 51°19.577 2°54.505 45.6 14.4 38 13.2
2006-12-12 08:22:14 51°19.589 2°54.519 45.2 14.3 32 13.4
2006-12-12 08:22:20 51°19.607 2°54.542 42.6 13.9 44 13.1
2006-12-12 08:22:25 51°19.624 2°54.56 47.9 14.3 34 13
2006-12-12 08:22:29 51°19.636 2°54.576 44.8 14.5 38 13.2
2006-12-12 08:22:35 51°19.655 2°54.598 43.8 14 35 13.4
2006-12-12 08:22:40 51°19.669 2°54.62 44.4 14.1 45 13.2
2006-12-12 08:22:45 51°19.686 2°54.635 47.8 14.2 32 13
2006-12-12 08:22:49 51°19.698 2°54.652 44.2 14.5 40 13.2
2006-12-12 08:22:54 51°19.715 2°54.669 43.9 14.2 32 13.4
2006-12-12 08:23:00 51°19.732 2°54.695 44.2 14.2 44 13.1
2006-12-12 08:23:05 51°19.75 2°54.71 45.7 14.3 32 12.9
2006-12-12 08:23:10 51°19.764 2°54.729 43.1 13.6 38 13.5
2006-12-12 08:23:14 51°19.775 2°54.747 45.5 14.1 43 13.3
2006-12-12 08:23:20 51°19.796 2°54.766 46.1 14.3 30 13.3
2006-12-12 08:23:25 51°19.811 2°54.783 39.7 13.7 35 13.3
2006-12-12 08:23:30 51°19.825 2°54.805 45.3 14.1 41 13.4
2006-12-12 08:23:34 51°19.839 2°54.817 44.2 14.2 33 13.4
2006-12-12 08:23:40 51°19.857 2°54.841 44.8 13.9 39 13.6
2006-12-12 08:23:45 51°19.872 2°54.86 45 14 38 13.6
2006-12-12 08:23:50 51°19.888 2°54.879 46 14.3 38 13.7
2006-12-12 08:23:54 51°19.902 2°54.892 43.9 14.3 34 13.8
2006-12-12 08:24:00 51°19.919 2°54.919 45.8 14.4 43 13.8
2006-12-12 08:24:05 51°19.936 2°54.935 43.1 13.6 36 13.8
2006-12-12 08:24:10 51°19.949 2°54.958 48.7 14.5 44 13.6
2006-12-12 08:24:14 51°19.964 2°54.97 45.7 14.4 31 13.5
2006-12-12 08:24:20 51°19.981 2°54.995 43.9 13.9 42 13.6
2006-12-12 08:24:25 51°19.997 2°55.013 47.1 14.2 36 13.6
2006-12-12 08:24:29 51°20.01 2°55.029 43.7 14.5 37 13.6
2006-12-12 08:24:34 51°20.026 2°55.046 42.1 14.1 33 13.7
2006-12-12 08:24:40 51°20.042 2°55.073 46.3 13.9 48 13.8
2006-12-12 08:24:45 51°20.058 2°55.091 50.2 14.1 37 13.7
2006-12-12 08:24:50 51°20.072 2°55.113 48.4 14.3 43 13.8
2006-12-12 08:24:55 51°20.089 2°55.13 47.3 14.2 35 13.8
2006-12-12 08:25:00 51°20.102 2°55.154 47.9 14.1 46 13.8
2006-12-12 08:25:05 51°20.118 2°55.171 48.5 14.1 36 13.7
2006-12-12 08:25:10 51°20.132 2°55.195 49.4 14.6 44 13.5
2006-12-12 08:25:14 51°20.146 2°55.208 46.6 14.6 35 13.5
2006-12-12 08:25:20 51°20.163 2°55.234 47.1 14 45 13.7
2006-12-12 08:25:25 51°20.178 2°55.255 50.3 14.4 41 13.8
2006-12-12 08:25:30 51°20.194 2°55.275 49.3 14.7 37 13.7
2006-12-12 08:25:34 51°20.205 2°55.293 47.7 14.4 44 13.7
2006-12-12 08:25:40 51°20.224 2°55.318 50.2 14.5 39 13.7
2006-12-12 08:25:45 51°20.24 2°55.337 46.7 14.4 39 13.7
2006-12-12 08:25:49 51°20.252 2°55.353 47.2 14.2 37 13.9
2006-12-12 08:25:54 51°20.266 2°55.376 49.1 14.5 44 13.8
2006-12-12 08:26:00 51°20.285 2°55.399 48 14.3 37 13.7
2006-12-12 08:26:05 51°20.298 2°55.421 47.7 14.2 46 13.6
2006-12-12 08:26:09 51°20.311 2°55.437 50.5 14.5 38 13.8
2006-12-12 08:26:14 51°20.326 2°55.458 48.4 14.4 45 13.7
2006-12-12 08:26:20 51°20.343 2°55.484 51.4 14.3 41 13.8
2006-12-12 08:26:24 51°20.354 2°55.503 52.5 14.3 49 14
2006-12-12 08:26:30 51°20.371 2°55.53 54.3 14.6 43 14
2006-12-12 08:26:35 51°20.385 2°55.554 53.2 14.5 48 13.8
2006-12-12 08:26:40 51°20.398 2°55.577 55 14.3 46 13.9
2006-12-12 08:26:44 51°20.409 2°55.595 53.9 14.1 49 13.9
2006-12-12 08:26:50 51°20.424 2°55.625 58.1 14.4 49 13.9
2006-12-12 08:26:54 51°20.436 2°55.642 55.2 14.3 49 13.8
2006-12-12 08:27:00 51°20.45 2°55.673 58.4 14.2 49 14
2006-12-12 08:27:05 51°20.464 2°55.694 55.8 13.8 45 14.2
2006-12-12 08:27:10 51°20.475 2°55.719 55.8 14.2 54 13.7
2006-12-12 08:27:15 51°20.49 2°55.742 58.2 14.7 43 13.8
2006-12-12 08:27:20 51°20.503 2°55.764 52 13.8 45 14
2006-12-12 08:27:25 51°20.514 2°55.789 55.1 14 56 13.7
2006-12-12 08:27:29 51°20.526 2°55.806 59.3 14.3 41 13.8
2006-12-12 08:27:35 51°20.541 2°55.834 53 13.9 51 13.8
2006-12-12 08:27:40 51°20.556 2°55.856 56.6 14.3 42 13.8
2006-12-12 08:27:45 51°20.569 2°55.878 52.4 14 48 14
2006-12-12 08:27:50 51°20.581 2°55.902 55 13.9 51 14
2006-12-12 08:27:54 51°20.591 2°55.921 58 14.1 48 14.1
2006-12-12 08:28:00 51°20.606 2°55.951 57.6 14.4 52 14.1
2006-12-12 08:28:05 51°20.621 2°55.972 55.4 14.4 44 13.8
2006-12-12 08:28:10 51°20.633 2°55.997 56.5 14.1 50 14.2
2006-12-12 08:28:14 51°20.643 2°56.017 56.7 14.5 53 13.8
2006-12-12 08:28:20 51°20.66 2°56.044 56.6 14.4 42 13.9
2006-12-12 08:28:25 51°20.669 2°56.072 56.9 14.2 63 13.7
2006-12-12 08:28:30 51°20.682 2°56.096 64.2 14.4 48 13.8
2006-12-12 08:28:34 51°20.691 2°56.116 60.8 13.8 57 14
2006-12-12 08:28:40 51°20.705 2°56.145 62.2 13.8 50 14.1
2006-12-12 08:28:45 51°20.717 2°56.17 59.7 14.2 53 13.9
2006-12-12 08:28:50 51°20.729 2°56.194 59.5 14.1 51 14
2006-12-12 08:28:55 51°20.741 2°56.218 58.7 13.4 52 14.2
2006-12-12 08:29:00 51°20.751 2°56.244 62.1 13.8 57 14.1
2006-12-12 08:29:04 51°20.762 2°56.262 61.6 14.2 46 14
2006-12-12 08:29:10 51°20.777 2°56.29 55.6 14.1 51 13.9
2006-12-12 08:29:15 51°20.79 2°56.313 57.2 14 47 14
2006-12-12 08:29:20 51°20.802 2°56.337 56.9 13.8 54 13.9
2006-12-12 08:29:24 51°20.812 2°56.356 58.8 14 49 14
2006-12-12 08:29:29 51°20.823 2°56.381 60.5 13.9 53 14
2006-12-12 08:29:35 51°20.838 2°56.41 59.4 14.1 51 13.8
2006-12-12 08:29:40 51°20.851 2°56.434 58.1 14.5 49 13.9
2006-12-12 08:29:45 51°20.865 2°56.457 55.8 14.1 47 14.1
2006-12-12 08:29:49 51°20.872 2°56.478 58.7 13.6 57 13.9
2006-12-12 08:29:54 51°20.885 2°56.501 61.1 14.1 50 14
2006-12-12 08:30:00 51°20.9 2°56.531 59.3 14.5 52 13.9
2006-12-12 08:30:05 51°20.913 2°56.554 57.2 14 48 13.9
2006-12-12 08:30:10 51°20.923 2°56.579 58.4 13.2 58 14.1
2006-12-12 08:30:14 51°20.931 2°56.6 63 14.3 54 14
2006-12-12 08:30:20 51°20.949 2°56.626 57.8 14.4 43 13.8
2006-12-12 08:30:25 51°20.959 2°56.651 55.8 13.4 56 14.1
2006-12-12 08:30:30 51°20.971 2°56.675 60.9 13.8 51 14
2006-12-12 08:30:34 51°20.981 2°56.694 60.2 13.9 53 14
2006-12-12 08:30:40 51°20.994 2°56.724 60.1 14.1 55 13.8
2006-12-12 08:30:45 51°21.007 2°56.748 60.2 14 47 14.2
2006-12-12 08:30:50 51°21.018 2°56.773 58.5 14 58 13.9
2006-12-12 08:30:54 51°21.028 2°56.792 61.4 14.3 45 13.9
2006-12-12 08:31:00 51°21.042 2°56.822 57.8 14 55 14.1
2006-12-12 08:31:04 51°21.053 2°56.84 58.7 14 47 13.9
2006-12-12 08:31:10 51°21.066 2°56.871 60 14.1 54 14
2006-12-12 08:31:14 51°21.078 2°56.887 56.7 13.7 47 14
2006-12-12 08:31:20 51°21.091 2°56.917 58.8 13.8 53 14
2006-12-12 08:31:25 51°21.104 2°56.941 59 14 51 14.1
2006-12-12 08:31:30 51°21.115 2°56.966 58.8 13.9 52 14.1
2006-12-12 08:31:34 51°21.126 2°56.984 58 13.8 53 13.8
2006-12-12 08:31:40 51°21.138 2°57.017 63.1 14.5 56 13.9
2006-12-12 08:31:45 51°21.15 2°57.039 59.1 13.4 52 14.1
2006-12-12 08:31:50 51°21.159 2°57.067 62 13.8 61 13.8
2006-12-12 08:31:55 51°21.172 2°57.093 64.8 14.9 52 13.7
2006-12-12 08:32:00 51°21.185 2°57.115 57 13.6 47 13.8
2006-12-12 08:32:05 51°21.192 2°57.141 61.1 13.2 64 13.9
2006-12-12 08:32:09 51°21.201 2°57.162 67.9 14.4 55 13.9
2006-12-12 08:32:14 51°21.213 2°57.189 63.8 14.7 56 14
2006-12-12 08:32:20 51°21.227 2°57.221 63.2 14.5 55 14
2006-12-12 08:32:24 51°21.235 2°57.242 62.7 13.9 54 14.2
2006-12-12 08:32:30 51°21.248 2°57.271 61.5 13.5 60 14.1
2006-12-12 08:32:34 51°21.256 2°57.294 66.7 14.6 56 14.3
2006-12-12 08:32:40 51°21.273 2°57.32 61.6 14.3 44 14
2006-12-12 08:32:45 51°21.285 2°57.343 53.4 13.5 50 14.1
2006-12-12 08:32:50 51°21.296 2°57.368 57.3 13.8 54 14
2006-12-12 08:32:54 51°21.305 2°57.388 60.7 14 58 13.9
2006-12-12 08:33:00 51°21.319 2°57.418 64.5 14 52 14.2
2006-12-12 08:33:05 51°21.329 2°57.443 60.8 13.4 57 14.1
2006-12-12 08:33:10 51°21.34 2°57.468 63.4 13.9 55 14.1
2006-12-12 08:33:14 51°21.35 2°57.489 60.6 14.4 49 14.1
2006-12-12 08:33:20 51°21.364 2°57.516 56.3 13.6 54 14
2006-12-12 08:33:25 51°21.373 2°57.543 63.8 13.6 61 13.8
2006-12-12 08:33:30 51°21.384 2°57.569 65 13.8 58 14
2006-12-12 08:33:35 51°21.393 2°57.594 66 13.5 57 14.2
2006-12-12 08:33:40 51°21.404 2°57.619 64.7 13.6 58 13.9
2006-12-12 08:33:45 51°21.417 2°57.643 62.4 14 50 13.9
2006-12-12 08:33:50 51°21.428 2°57.668 58.8 13.7 54 13.9
2006-12-12 08:33:54 51°21.435 2°57.689 63.1 14.1 60 13.8
2006-12-12 08:34:00 51°21.45 2°57.719 64.4 14.4 50 13.9
2006-12-12 08:34:05 51°21.461 2°57.744 58.6 14 55 13.9
2006-12-12 08:34:10 51°21.473 2°57.769 61.9 13.9 54 14.1
2006-12-12 08:34:15 51°21.485 2°57.793 61.1 13.9 50 13.9
2006-12-12 08:34:20 51°21.495 2°57.818 58.6 13.3 56 13.9
2006-12-12 08:34:25 51°21.505 2°57.841 62.4 12.6 55 14
2006-12-12 08:34:30 51°21.515 2°57.863 63.1 12.3 57 13.9
2006-12-12 08:34:34 51°21.522 2°57.881 62.3 11.6 54 14
2006-12-12 08:34:40 51°21.531 2°57.905 61.7 10.8 62 14.1
2006-12-12 08:34:45 51°21.537 2°57.928 69.5 11.2 66 13.8
2006-12-12 08:34:50 51°21.544 2°57.949 70.9 10.5 64 14
2006-12-12 08:34:54 51°21.546 2°57.966 73.4 10 76 14
2006-12-12 08:35:00 51°21.553 2°57.991 80 10.1 66 13.9
2006-12-12 08:35:05 51°21.556 2°58.011 77.7 9.3 75 14
2006-12-12 08:35:10 51°21.56 2°58.029 79.9 9.1 70 13.8
2006-12-12 08:35:15 51°21.564 2°58.047 79.6 8.6 73 14.2
2006-12-12 08:35:20 51°21.567 2°58.065 80.1 8.3 73 14.1
2006-12-12 08:35:25 51°21.57 2°58.082 81.2 8.1 71 14
2006-12-12 08:35:29 51°21.573 2°58.095 80.6 7.8 74 14.1
2006-12-12 08:35:35 51°21.577 2°58.114 81.3 7.6 70 14.1
2006-12-12 08:35:40 51°21.58 2°58.13 81 7.4 72 14
2006-12-12 08:35:44 51°21.583 2°58.142 80.8 7.3 72 14
2006-12-12 08:35:50 51°21.586 2°58.16 80.7 7.1 70 13.9
2006-12-12 08:35:55 51°21.589 2°58.175 80.5 7 72 14.1
2006-12-12 08:36:00 51°21.592 2°58.189 80.3 6.7 71 14
2006-12-12 08:36:05 51°21.595 2°58.203 80.3 6.6 72 13.8
2006-12-12 08:36:09 51°21.598 2°58.214 79.8 6.4 69 13.8
2006-12-12 08:36:14 51°21.601 2°58.227 79.8 6.3 72 13.8
2006-12-12 08:36:20 51°21.604 2°58.242 79.4 6.2 68 13.8
2006-12-12 08:36:25 51°21.607 2°58.255 79.8 6.1 73 13.9
2006-12-12 08:36:30 51°21.61 2°58.268 79.1 6 70 13.8
2006-12-12 08:36:35 51°21.612 2°58.28 79.8 5.9 68 13.8
2006-12-12 08:36:40 51°21.615 2°58.292 79.1 5.8 72 13.8
2006-12-12 08:36:45 51°21.618 2°58.304 78.5 5.8 66 13.9
2006-12-12 08:36:50 51°21.621 2°58.316 77.6 5.7 67 13.8
2006-12-12 08:36:54 51°21.624 2°58.325 76.4 5.5 65 13.9
2006-12-12 08:37:00 51°21.628 2°58.337 74 5.3 61 13.7
2006-12-12 08:37:05 51°21.632 2°58.346 69.5 5.1 54 13.9
2006-12-12 08:37:09 51°21.635 2°58.353 64 4.9 52 13.9
2006-12-12 08:37:14 51°21.64 2°58.361 58.2 4.7 50 13.7
2006-12-12 08:37:20 51°21.646 2°58.37 53.7 4.6 43 13.5
2006-12-12 08:37:25 51°21.651 2°58.375 48.1 4.5 35 13.6
2006-12-12 08:37:30 51°21.656 2°58.381 41.5 4.6 30 13.7
2006-12-12 08:37:35 51°21.662 2°58.386 35.8 5 29 13.6
2006-12-12 08:37:40 51°21.669 2°58.389 28.9 5.2 18 13.6
2006-12-12 08:37:45 51°21.676 2°58.391 20.4 5.4 11 13.8
2006-12-12 08:37:50 51°21.684 2°58.391 11.5 5.4 1 14.2
2006-12-12 08:37:54 51°21.689 2°58.392 2 4.9 359 13.8
2006-12-12 08:38:00 51°21.697 2°58.391 355.7 4.5 357 13.4
2006-12-12 08:38:05 51°21.702 2°58.389 351.6 4.2 353 13.5
2006-12-12 08:38:10 51°21.708 2°58.387 347.3 4.3 348 13.6
2006-12-12 08:38:15 51°21.714 2°58.383 342.1 4.4 340 13.7
2006-12-12 08:38:20 51°21.719 2°58.38 335.7 4.2 336 13.8
2006-12-12 08:38:25 51°21.724 2°58.375 329.4 4.1 329 14.1
2006-12-12 08:38:30 51°21.729 2°58.37 323.1 3.9 329 13.9
2006-12-12 08:38:35 51°21.733 2°58.366 318 3.3 327 13.7
2006-12-12 08:38:40 51°21.736 2°58.362 313.7 2.9 325 13.4
2006-12-12 08:38:45 51°21.74 2°58.359 310.5 2.8 326 13.4
2006-12-12 08:38:50 51°21.742 2°58.355 306.2 2.4 323 13.3
2006-12-12 08:38:54 51°21.744 2°58.352 302.5 2.2 325 13.6
2006-12-12 08:39:00 51°21.747 2°58.349 299.4 2.1 324 13.8
2006-12-12 08:39:05 51°21.749 2°58.346 296.4 2 319 14.1
2006-12-12 08:39:10 51°21.752 2°58.343 294.4 2.2 322 14.2
2006-12-12 08:39:14 51°21.753 2°58.34 291.7 2 305 14.5
2006-12-12 08:39:20 51°21.755 2°58.335 288.9 2.3 303 14.7
2006-12-12 08:39:25 51°21.756 2°58.33 285.2 2.3 296 14.7
2006-12-12 08:39:30 51°21.757 2°58.325 279.4 2.4 289 14.6
2006-12-12 08:39:34 51°21.758 2°58.321 273.4 2.4 279 14.5
2006-12-12 08:39:40 51°21.758 2°58.315 267.6 2.6 273 14.6
2006-12-12 08:39:45 51°21.757 2°58.309 261.9 2.6 260 14.5
2006-12-12 08:39:50 51°21.756 2°58.303 255.6 2.7 255 14.4
2006-12-12 08:39:55 51°21.755 2°58.297 249.9 2.8 247 14.1
2006-12-12 08:40:00 51°21.753 2°58.291 244.8 3.1 247 14.2
2006-12-12 08:40:05 51°21.751 2°58.286 240.7 3.2 237 14.1
2006-12-12 08:40:10 51°21.748 2°58.28 237.3 3.2 236 14.2
2006-12-12 08:40:15 51°21.745 2°58.275 234.1 3.1 232 14.1
2006-12-12 08:40:20 51°21.743 2°58.269 231.9 3.1 228 14.1
2006-12-12 08:40:24 51°21.74 2°58.266 231 3.2 220 14.3
2006-12-12 08:40:30 51°21.736 2°58.26 230.3 3 223 14.2
2006-12-12 08:40:35 51°21.733 2°58.257 228.9 2.8 218 13.9
2006-12-12 08:40:40 51°21.731 2°58.252 228.4 2.7 225 14.1
2006-12-12 08:40:45 51°21.728 2°58.248 229.3 2.6 225 14.1
2006-12-12 08:40:49 51°21.726 2°58.245 231.8 2.5 228 14.1
2006-12-12 08:40:55 51°21.723 2°58.24 234 2.3 231 14
2006-12-12 08:41:00 51°21.721 2°58.237 237 2.2 217 14
2006-12-12 08:41:05 51°21.72 2°58.233 239.1 2 233 14.1
2006-12-12 08:41:10 51°21.718 2°58.23 239.9 1.8 234 14.1
2006-12-12 08:41:15 51°21.717 2°58.228 241.4 1.5 234 14.1
2006-12-12 08:41:20 51°21.716 2°58.225 242.6 1.4 245 14.2
2006-12-12 08:41:25 51°21.714 2°58.222 244.1 1.4 231 14.1
2006-12-12 08:41:30 51°21.714 2°58.219 245.7 1.4 245 14.2
2006-12-12 08:41:34 51°21.713 2°58.217 246.8 1.3 252 14.3
2006-12-12 08:41:40 51°21.712 2°58.214 247.3 1.1 243 14.2
2006-12-12 08:41:45 51°21.712 2°58.212 248.2 1 253 14.2
2006-12-12 08:41:50 51°21.712 2°58.211 248.7 0.9 249 14.1
2006-12-12 08:41:54 51°21.711 2°58.209 248.9 0.8 256 14.2
2006-12-12 08:42:00 51°21.711 2°58.208 249.4 0.8 242 14.3
2006-12-12 08:42:05 51°21.711 2°58.206 250.1 0.7 253 14.1
2006-12-12 08:42:10 51°21.711 2°58.205 251.2 0.7 245 14.1
2006-12-12 08:42:15 51°21.71 2°58.203 251.9 0.7 253 14.1
2006-12-12 08:42:20 51°21.71 2°58.202 252.5 0.8 250 14.1
2006-12-12 08:42:25 51°21.709 2°58.199 253.4 0.9 247 14
2006-12-12 08:42:30 51°21.709 2°58.197 254.3 1 249 14
2006-12-12 08:42:34 51°21.708 2°58.195 254.8 1.1 263 14.1
2006-12-12 08:42:40 51°21.708 2°58.192 255.3 1.2 253 14.1
2006-12-12 08:42:45 51°21.708 2°58.189 255.7 1.4 260 14.2
2006-12-12 08:42:50 51°21.707 2°58.185 256.5 1.5 260 14.3
2006-12-12 08:42:55 51°21.707 2°58.182 257.4 1.7 263 14.3
2006-12-12 08:43:00 51°21.707 2°58.178 258 1.7 263 14.2
2006-12-12 08:43:05 51°21.706 2°58.174 258.2 1.8 261 14.3
2006-12-12 08:43:10 51°21.706 2°58.17 258.6 1.8 257 14.3
2006-12-12 08:43:15 51°21.706 2°58.166 259.4 1.7 259 14.3
2006-12-12 08:43:20 51°21.706 2°58.163 259.9 1.6 269 14.2
2006-12-12 08:43:25 51°21.705 2°58.16 260.5 1.4 265 14.1
2006-12-12 08:43:30 51°21.705 2°58.157 260.5 1.1 267 14.2
2006-12-12 08:43:34 51°21.706 2°58.155 260.9 0.8 262 14.1
2006-12-12 08:43:40 51°21.706 2°58.154 261.2 0.6 289 14.1
2006-12-12 08:43:45 51°21.706 2°58.153 261.2 0.5 288 14.2
2006-12-12 08:43:50 51°21.707 2°58.152 260.8 0.6 304 14.4
2006-12-12 08:43:54 51°21.707 2°58.152 260.9 0.3 284 14.3
2006-12-12 08:44:00 51°21.707 2°58.152 260.9 0.3 330 14.2
2006-12-12 08:44:05 51°21.707 2°58.153 260.7 0.3 75 14.1
2006-12-12 08:44:10 51°21.708 2°58.154 260.4 0.5 60 13.9
2006-12-12 08:44:14 51°21.708 2°58.155 259.2 0.7 59 13.7
2006-12-12 08:44:20 51°21.708 2°58.156 257.5 0.7 66 13.9
2006-12-12 08:44:25 51°21.709 2°58.157 255.8 0.7 58 14
2006-12-12 08:44:30 51°21.709 2°58.158 253.4 0.6 77 14.1
2006-12-12 08:44:35 51°21.71 2°58.159 251.6 0.5 46 14.3
2006-12-12 08:44:40 51°21.71 2°58.161 250.2 0.6 86 14.5
2006-12-12 08:44:44 51°21.71 2°58.163 248.6 0.8 82 14.3
2006-12-12 08:44:50 51°21.711 2°58.164 246.7 0.9 60 14.1
2006-12-12 08:44:55 51°21.711 2°58.166 244.4 1 64 13.9
2006-12-12 08:45:00 51°21.712 2°58.168 241.6 1.1 66 13.9
2006-12-12 08:45:04 51°21.712 2°58.169 239.5 1.1 57 14
2006-12-12 08:45:10 51°21.713 2°58.172 236.9 1.1 61 14
2006-12-12 08:45:15 51°21.713 2°58.175 233.2 1 82 14.1
2006-12-12 08:45:20 51°21.713 2°58.178 231.5 1.3 94 14.2
2006-12-12 08:45:25 51°21.714 2°58.179 230 1.1 71 13.9
2006-12-12 08:45:29 51°21.715 2°58.181 228 1 65 13.7
2006-12-12 08:45:35 51°21.716 2°58.183 225.4 1 55 13.8
2006-12-12 08:45:40 51°21.716 2°58.185 222.6 0.9 61 14
2006-12-12 08:45:45 51°21.717 2°58.187 220.2 0.9 59 14.3
2006-12-12 08:45:49 51°21.717 2°58.188 218.4 0.8 59 14.5
2006-12-12 08:45:54 51°21.718 2°58.19 217.1 0.8 67 14.5
2006-12-12 08:46:00 51°21.718 2°58.192 215.6 0.7 69 14.6
2006-12-12 08:46:05 51°21.718 2°58.194 214.1 0.7 85 14.7
2006-12-12 08:46:10 51°21.718 2°58.195 212.3 0.7 74 14.3
2006-12-12 08:46:14 51°21.719 2°58.197 210 0.7 69 14.2
2006-12-12 08:46:20 51°21.719 2°58.2 208.2 0.9 88 14.3
2006-12-12 08:46:25 51°21.719 2°58.201 207.6 0.9 86 14
2006-12-12 08:46:30 51°21.719 2°58.202 205.9 0.7 77 13.9
2006-12-12 08:46:34 51°21.719 2°58.204 204 0.6 87 13.7
2006-12-12 08:46:40 51°21.719 2°58.206 202.4 0.6 106 13.9
2006-12-12 08:46:45 51°21.718 2°58.207 201.5 0.8 119 14.1
2006-12-12 08:46:50 51°21.717 2°58.209 201.1 0.9 122 14.1
2006-12-12 08:46:55 51°21.717 2°58.21 200.9 1 124 14.1
2006-12-12 08:47:00 51°21.716 2°58.212 201.5 1.2 124 13.9
2006-12-12 08:47:05 51°21.716 2°58.213 202.5 0.8 124 13.6
2006-12-12 08:47:10 51°21.715 2°58.214 203.2 0.7 130 13
2006-12-12 08:47:15 51°21.714 2°58.215 203.6 0.5 145 12.7
2006-12-12 08:47:20 51°21.713 2°58.216 204.2 0.5 152 13
2006-12-12 08:47:24 51°21.712 2°58.217 204.6 0.4 143 13.6
2006-12-12 08:47:30 51°21.712 2°58.218 205 0.7 140 14.1
2006-12-12 08:47:35 51°21.711 2°58.218 205.4 0.7 161 14.6
2006-12-12 08:47:40 51°21.71 2°58.218 206.5 0.7 175 14.7
2006-12-12 08:47:45 51°21.708 2°58.218 208.1 0.8 182 14.6
2006-12-12 08:47:49 51°21.707 2°58.218 209 1 187 14.6
2006-12-12 08:47:55 51°21.705 2°58.217 211.9 1.1 194 14.4
2006-12-12 08:48:00 51°21.703 2°58.216 214.1 1.1 210 14.4
2006-12-12 08:48:05 51°21.702 2°58.216 216.7 1.1 200 14.1
2006-12-12 08:48:09 51°21.7 2°58.215 219.8 1.2 219 14.1
2006-12-12 08:48:14 51°21.698 2°58.214 222 1.5 200 13.9
2006-12-12 08:48:20 51°21.697 2°58.211 224.3 1.4 223 13.8
2006-12-12 08:48:25 51°21.695 2°58.21 226.9 1.4 208 13.9
2006-12-12 08:48:30 51°21.694 2°58.208 230 1.2 222 13.8
2006-12-12 08:48:35 51°21.693 2°58.206 231.2 1.1 229 14.2
2006-12-12 08:48:40 51°21.692 2°58.205 232.8 1.1 224 14.3
2006-12-12 08:48:45 51°21.69 2°58.203 234.1 1 214 14.3
2006-12-12 08:48:50 51°21.69 2°58.202 234.7 0.9 232 14.4
2006-12-12 08:48:54 51°21.689 2°58.201 236 1 212 14.4
2006-12-12 08:49:00 51°21.688 2°58.199 237.8 0.9 229 14.4
2006-12-12 08:49:05 51°21.688 2°58.198 238.8 0.7 229 14.1
2006-12-12 08:49:10 51°21.687 2°58.198 240.2 0.7 211 14.1
2006-12-12 08:49:15 51°21.686 2°58.197 241 0.5 229 14.1
2006-12-12 08:49:20 51°21.686 2°58.196 241.1 0.5 233 14.1
2006-12-12 08:49:25 51°21.685 2°58.195 241.8 0.5 244 14.1
2006-12-12 08:49:30 51°21.685 2°58.194 243.7 0.5 212 14.1
2006-12-12 08:49:34 51°21.685 2°58.193 244.9 0.5 259 14
2006-12-12 08:49:40 51°21.684 2°58.192 246 0.4 249 14.2
2006-12-12 08:49:45 51°21.684 2°58.191 247.5 0.4 257 14.1
2006-12-12 08:49:50 51°21.684 2°58.19 249.7 0.4 262 14
2006-12-12 08:49:55 51°21.684 2°58.189 250.9 0.3 271 14.1
2006-12-12 08:50:00 51°21.684 2°58.188 251.7 0.2 227 13.9
2006-12-12 08:50:05 51°21.683 2°58.188 251.4 0.3 204 13.8
2006-12-12 08:50:09 51°21.684 2°58.188 251.2 0.2 253 13.9
2006-12-12 08:50:15 51°21.683 2°58.188 249.8 0.3 187 13.9
2006-12-12 08:50:20 51°21.683 2°58.188 249.6 0.2 286 14.1
2006-12-12 08:50:25 51°21.683 2°58.188 248.5 0.3 179 14.1
2006-12-12 08:50:29 51°21.683 2°58.188 246.7 0.1 273 14.1
2006-12-12 08:50:34 51°21.683 2°58.188 245.4 0.1 226 14.3
2006-12-12 08:50:40 51°21.683 2°58.188 245 0.4 151 14.3
2006-12-12 08:50:45 51°21.682 2°58.188 243.8 0.1 155 14.3
2006-12-12 08:50:50 51°21.682 2°58.189 242.4 0.2 151 14.4
2006-12-12 08:50:55 51°21.682 2°58.19 241.6 0.4 138 14.4
2006-12-12 08:51:00 51°21.682 2°58.19 240.9 0.2 45 14.1
2006-12-12 08:51:05 51°21.682 2°58.191 240.4 0.4 103 14
2006-12-12 08:51:10 51°21.682 2°58.191 239.1 0.3 101 14
2006-12-12 08:51:15 51°21.683 2°58.192 238.5 0.3 88 14
2006-12-12 08:51:20 51°21.683 2°58.192 238.1 0.3 61 14
2006-12-12 08:51:25 51°21.683 2°58.193 237.6 0.4 98 14
2006-12-12 08:51:30 51°21.683 2°58.193 237.1 0.2 64 14
2006-12-12 08:51:35 51°21.682 2°58.194 236.6 0.2 72 14.1
2006-12-12 08:51:40 51°21.682 2°58.194 235.9 0.2 128 14
2006-12-12 08:51:45 51°21.682 2°58.194 235.9 0.1 245 14.1
2006-12-12 08:51:50 51°21.681 2°58.194 236.1 0.3 174 14.1
2006-12-12 08:51:55 51°21.681 2°58.194 237.2 0.1 266 14.2
2006-12-12 08:52:00 51°21.681 2°58.195 237.1 0.5 137 14
2006-12-12 08:52:05 51°21.681 2°58.196 236.4 0.1 64 14.1
2006-12-12 08:52:10 51°21.681 2°58.196 235.6 0.4 119 14
2006-12-12 08:52:14 51°21.681 2°58.196 235.9 0.2 79 14.1
2006-12-12 08:52:20 51°21.68 2°58.197 235.5 0.4 129 14.1
2006-12-12 08:52:25 51°21.68 2°58.197 235.5 0.4 131 14
2006-12-12 08:52:30 51°21.68 2°58.198 235.1 0.2 115 13.9
2006-12-12 08:52:35 51°21.679 2°58.199 235.2 0.3 138 13.9
2006-12-12 08:52:40 51°21.679 2°58.199 234.4 0.3 146 14.1
2006-12-12 08:52:45 51°21.678 2°58.2 234.9 0.6 148 14.1
2006-12-12 08:52:50 51°21.678 2°58.2 235.4 0.3 147 14
2006-12-12 08:52:54 51°21.678 2°58.2 235.5 0.1 122 13.9
2006-12-12 08:53:00 51°21.678 2°58.2 235.9 0.3 126 13.8
2006-12-12 08:53:05 51°21.677 2°58.201 236.1 0.3 124 13.6
2006-12-12 08:53:10 51°21.677 2°58.201 235 0.1 119 13.7
2006-12-12 08:53:14 51°21.676 2°58.201 235.2 0.3 156 13.9
2006-12-12 08:53:20 51°21.676 2°58.202 235.8 0.4 162 14
2006-12-12 08:53:25 51°21.676 2°58.202 236.6 0.5 160 14
2006-12-12 08:53:30 51°21.675 2°58.202 237.2 0.3 166 14
2006-12-12 08:53:34 51°21.675 2°58.202 238 0.2 172 14.1
2006-12-12 08:53:40 51°21.675 2°58.202 237.6 0.2 180 14
2006-12-12 08:53:45 51°21.674 2°58.202 238 0.2 209 14
2006-12-12 08:53:50 51°21.674 2°58.201 239 0.3 239 14
2006-12-12 08:53:54 51°21.673 2°58.201 239.9 0.4 238 14.2
2006-12-12 08:54:00 51°21.673 2°58.2 241.6 0.4 229 14.2
2006-12-12 08:54:05 51°21.673 2°58.2 243.1 0.3 212 14
2006-12-12 08:54:10 51°21.673 2°58.2 244.2 0.2 227 13.8
2006-12-12 08:54:15 51°21.672 2°58.2 245.3 0.3 181 13.9
2006-12-12 08:54:20 51°21.672 2°58.199 246.6 0.1 220 13.8
2006-12-12 08:54:24 51°21.671 2°58.199 247.6 0.2 237 13.8
2006-12-12 08:54:29 51°21.671 2°58.198 248 0.3 227 14
2006-12-12 08:54:35 51°21.671 2°58.197 248.7 0.4 242 14
2006-12-12 08:54:40 51°21.671 2°58.197 250.2 0.4 243 13.9
2006-12-12 08:54:45 51°21.671 2°58.196 251.7 0.4 261 14.1
2006-12-12 08:54:50 51°21.671 2°58.195 253.6 0.5 276 14.1
2006-12-12 08:54:55 51°21.671 2°58.194 255.3 0.5 255 14.2
2006-12-12 08:55:00 51°21.67 2°58.194 257.5 0.5 231 14.1
2006-12-12 08:55:05 51°21.67 2°58.194 259.5 0.4 214 13.8
2006-12-12 08:55:10 51°21.671 2°58.193 260.2 0.4 305 13.7
2006-12-12 08:55:14 51°21.671 2°58.193 261 0.3 292 13.8
2006-12-12 08:55:20 51°21.671 2°58.192 261.6 0.3 292 13.9
2006-12-12 08:55:25 51°21.671 2°58.191 262.9 0.4 295 14.1
2006-12-12 08:55:30 51°21.672 2°58.19 263.5 0.6 302 14.1
2006-12-12 08:55:34 51°21.672 2°58.188 264.3 0.7 303 14.1
2006-12-12 08:55:40 51°21.672 2°58.187 265.6 0.7 298 14.3
2006-12-12 08:55:45 51°21.673 2°58.186 267 0.7 290 14.4
2006-12-12 08:55:50 51°21.673 2°58.184 268.5 0.8 298 14.2
2006-12-12 08:55:54 51°21.674 2°58.183 269.6 0.9 305 14.2
2006-12-12 08:56:00 51°21.675 2°58.181 270.3 0.7 299 14.2
2006-12-12 08:56:05 51°21.675 2°58.18 270.8 0.8 301 14
2006-12-12 08:56:10 51°21.676 2°58.178 271.6 0.8 300 14
2006-12-12 08:56:14 51°21.676 2°58.177 272 0.9 306 13.9
2006-12-12 08:56:20 51°21.677 2°58.175 271.9 0.9 302 14.1
2006-12-12 08:56:24 51°21.678 2°58.173 271.4 0.9 300 14.2
2006-12-12 08:56:30 51°21.678 2°58.172 270.7 0.7 303 13.9
2006-12-12 08:56:35 51°21.679 2°58.171 269.8 0.7 311 14
2006-12-12 08:56:40 51°21.679 2°58.17 268.6 0.4 290 13.8
2006-12-12 08:56:45 51°21.68 2°58.17 267.6 0.5 313 13.8
2006-12-12 08:56:50 51°21.68 2°58.169 266.3 0.7 321 13.8
2006-12-12 08:56:54 51°21.68 2°58.168 264.8 0.6 327 13.7
2006-12-12 08:57:00 51°21.681 2°58.167 264.2 0.5 315 13.9
2006-12-12 08:57:05 51°21.682 2°58.166 264.1 0.8 318 13.9
2006-12-12 08:57:10 51°21.682 2°58.165 263.7 0.6 299 14.1
2006-12-12 08:57:15 51°21.683 2°58.164 264 0.9 318 14.2
2006-12-12 08:57:20 51°21.684 2°58.163 263.9 0.6 299 14.1
2006-12-12 08:57:24 51°21.684 2°58.162 263.8 0.7 310 14.2
2006-12-12 08:57:30 51°21.685 2°58.16 264.1 0.8 309 14.2
2006-12-12 08:57:34 51°21.686 2°58.16 264.2 1 317 14.2
2006-12-12 08:57:40 51°21.686 2°58.158 264.5 0.6 306 14
2006-12-12 08:57:45 51°21.687 2°58.157 265 0.5 315 13.9
2006-12-12 08:57:50 51°21.687 2°58.156 265.4 0.5 314 13.9
2006-12-12 08:57:54 51°21.688 2°58.155 265.5 0.6 299 14.1
2006-12-12 08:58:00 51°21.688 2°58.154 265.8 0.6 299 14.1
2006-12-12 08:58:05 51°21.689 2°58.153 266.4 0.7 316 14
2006-12-12 08:58:09 51°21.689 2°58.153 266.5 0.6 317 13.9
2006-12-12 08:58:15 51°21.69 2°58.152 266.7 0.6 317 13.9
2006-12-12 08:58:20 51°21.691 2°58.151 266.8 0.8 315 14
2006-12-12 08:58:25 51°21.691 2°58.15 267 0.7 309 14.3
2006-12-12 08:58:30 51°21.692 2°58.149 267.4 0.6 313 14.3
2006-12-12 08:58:34 51°21.693 2°58.149 267.9 0.7 338 13.9
2006-12-12 08:58:40 51°21.693 2°58.149 267.7 0.5 350 13.8
2006-12-12 08:58:45 51°21.694 2°58.149 267.4 0.4 354 13.7
2006-12-12 08:58:50 51°21.695 2°58.148 266.8 0.4 346 14
2006-12-12 08:58:55 51°21.696 2°58.148 267 0.7 346 14.1
2006-12-12 08:59:00 51°21.696 2°58.148 266.6 0.4 355 14.2
2006-12-12 08:59:04 51°21.697 2°58.149 266.3 0.6 10 14.1
2006-12-12 08:59:10 51°21.697 2°58.149 266.2 0.4 46 14
2006-12-12 08:59:15 51°21.699 2°58.149 265.8 0.7 18 13.8
2006-12-12 08:59:20 51°21.699 2°58.149 265.1 0.5 16 14
2006-12-12 08:59:24 51°21.699 2°58.15 264.5 0.3 27 14.2
2006-12-12 08:59:30 51°21.7 2°58.15 264.8 0.6 20 14
2006-12-12 08:59:35 51°21.701 2°58.151 263.7 0.6 25 14
2006-12-12 08:59:40 51°21.702 2°58.152 262.9 0.5 32 13.9
2006-12-12 08:59:44 51°21.702 2°58.152 262.7 0.5 38 14
2006-12-12 08:59:50 51°21.703 2°58.153 262.9 0.6 36 14.1
2006-12-12 08:59:54 51°21.703 2°58.154 262.8 0.7 40 14.1
2006-12-12 09:00:00 51°21.704 2°58.155 262.7 0.6 68 14.2
2006-12-12 09:00:05 51°21.705 2°58.156 262.9 0.7 60 14.1
2006-12-12 09:00:09 51°21.705 2°58.158 262.7 0.7 68 14.2
2006-12-12 09:00:15 51°21.705 2°58.159 262.4 0.8 66 14.1
2006-12-12 09:00:20 51°21.706 2°58.161 262.2 0.9 55 14
2006-12-12 09:00:25 51°21.707 2°58.162 261.4 0.8 67 14
2006-12-12 09:00:30 51°21.707 2°58.164 260.9 0.9 58 14
2006-12-12 09:00:34 51°21.707 2°58.165 260.5 0.9 61 13.9
2006-12-12 09:00:40 51°21.708 2°58.167 260.2 0.8 64 14.1
2006-12-12 09:00:44 51°21.709 2°58.169 260.3 0.8 64 14.1
2006-12-12 09:00:50 51°21.709 2°58.171 260.3 0.9 55 13.9
2006-12-12 09:00:55 51°21.71 2°58.172 260.5 0.9 55 14
2006-12-12 09:01:00 51°21.711 2°58.174 260.6 0.8 60 14
2006-12-12 09:01:04 51°21.711 2°58.175 261 0.9 56 13.9
2006-12-12 09:01:10 51°21.711 2°58.177 260.9 0.9 66 13.9
2006-12-12 09:01:15 51°21.712 2°58.179 260.3 1 75 13.8
2006-12-12 09:01:20 51°21.713 2°58.181 259.1 1 66 13.5
2006-12-12 09:01:24 51°21.712 2°58.182 256.7 0.9 73 13.6
2006-12-12 09:01:29 51°21.713 2°58.183 253.9 0.8 74 13.7
2006-12-12 09:01:35 51°21.713 2°58.186 251.7 0.9 67 13.8
2006-12-12 09:01:40 51°21.714 2°58.188 249.8 0.9 66 13.9
2006-12-12 09:01:45 51°21.714 2°58.189 248.2 0.8 79 14.1
2006-12-12 09:01:49 51°21.715 2°58.19 246.4 0.6 63 14.2
2006-12-12 09:01:54 51°21.715 2°58.192 245.4 0.6 68 14.1
2006-12-12 09:02:00 51°21.715 2°58.193 244.5 0.7 86 14.1
2006-12-12 09:02:05 51°21.716 2°58.194 243.6 0.6 40 14
2006-12-12 09:02:09 51°21.716 2°58.196 242.8 0.5 61 14
2006-12-12 09:02:14 51°21.716 2°58.196 242.4 0.5 76 14
2006-12-12 09:02:20 51°21.716 2°58.198 242.1 0.6 66 13.9
2006-12-12 09:02:25 51°21.716 2°58.2 241.3 0.7 95 13.9
2006-12-12 09:02:30 51°21.716 2°58.2 240.9 0.6 92 13.8
2006-12-12 09:02:34 51°21.716 2°58.201 240.5 0.5 94 13.8
2006-12-12 09:02:40 51°21.716 2°58.202 239.5 0.5 90 13.7
2006-12-12 09:02:45 51°21.716 2°58.203 238.1 0.5 86 13.8
2006-12-12 09:02:50 51°21.715 2°58.205 236.4 0.5 88 14
2006-12-12 09:02:55 51°21.715 2°58.206 234.7 0.6 100 13.9
2006-12-12 09:03:00 51°21.715 2°58.207 232.4 0.6 95 14
2006-12-12 09:03:04 51°21.715 2°58.209 230.8 0.8 110 13.9
2006-12-12 09:03:10 51°21.715 2°58.21 229.6 0.4 90 14
2006-12-12 09:03:15 51°21.714 2°58.212 228.3 0.7 106 14
2006-12-12 09:03:20 51°21.714 2°58.213 226.4 0.7 108 14
2006-12-12 09:03:25 51°21.714 2°58.215 224.1 0.7 116 14
2006-12-12 09:03:30 51°21.714 2°58.215 222.7 0.5 117 13.9
2006-12-12 09:03:35 51°21.714 2°58.217 221.6 0.5 111 13.8
2006-12-12 09:03:40 51°21.713 2°58.218 220.3 0.5 110 13.6
2006-12-12 09:03:44 51°21.713 2°58.219 218.2 0.7 127 13.7
2006-12-12 09:03:50 51°21.712 2°58.22 216.5 0.9 136 14.1
2006-12-12 09:03:55 51°21.711 2°58.221 215.2 0.8 141 14.1
2006-12-12 09:04:00 51°21.711 2°58.221 214.1 0.6 160 14.1
2006-12-12 09:04:05 51°21.709 2°58.223 213.3 0.9 153 14
2006-12-12 09:04:10 51°21.709 2°58.223 212 0.7 165 13.9
2006-12-12 09:04:14 51°21.708 2°58.224 211.6 0.9 148 13.9
2006-12-12 09:04:20 51°21.707 2°58.225 211.8 0.7 165 13.7
2006-12-12 09:04:25 51°21.705 2°58.225 211.1 0.9 162 13.7
2006-12-12 09:04:30 51°21.704 2°58.226 211.1 1 170 14.1
2006-12-12 09:04:34 51°21.703 2°58.226 211.2 1 160 14
2006-12-12 09:04:40 51°21.702 2°58.227 211.6 1 151 13.8
2006-12-12 09:04:45 51°21.701 2°58.227 211.7 0.6 166 13.6
2006-12-12 09:04:50 51°21.7 2°58.227 211.4 0.7 172 13.6
2006-12-12 09:04:54 51°21.699 2°58.227 211.2 0.9 175 13.7
2006-12-12 09:05:00 51°21.697 2°58.228 212.4 1.3 169 13.5
2006-12-12 09:05:05 51°21.696 2°58.227 214.3 1.2 196 13.4
2006-12-12 09:05:10 51°21.694 2°58.226 215.9 1.4 199 13.4
2006-12-12 09:05:15 51°21.692 2°58.225 218.7 1.5 204 13.5
2006-12-12 09:05:20 51°21.69 2°58.223 222.3 1.4 212 13.9
2006-12-12 09:05:24 51°21.689 2°58.223 225.3 1.2 210 13.9
2006-12-12 09:05:30 51°21.687 2°58.221 227 1.2 208 14.2
2006-12-12 09:05:35 51°21.686 2°58.221 228.4 1.1 198 14.1
2006-12-12 09:05:40 51°21.685 2°58.219 229.5 1 207 13.8
2006-12-12 09:05:45 51°21.684 2°58.218 230.4 0.9 218 13.9
2006-12-12 09:05:49 51°21.683 2°58.217 231.4 0.9 228 14
2006-12-12 09:05:54 51°21.682 2°58.216 233.6 1 217 14.1
2006-12-12 09:06:00 51°21.681 2°58.214 235.2 1 231 14.1
2006-12-12 09:06:05 51°21.68 2°58.212 237.3 1 215 14.2
2006-12-12 09:06:10 51°21.679 2°58.211 239.2 0.7 233 14.1
2006-12-12 09:06:15 51°21.678 2°58.21 240.9 0.7 227 14.1
2006-12-12 09:06:20 51°21.678 2°58.209 242.3 0.6 245 14.2
2006-12-12 09:06:25 51°21.677 2°58.208 242.7 0.6 233 14.2
2006-12-12 09:06:30 51°21.677 2°58.207 244 0.5 221 14
2006-12-12 09:06:34 51°21.677 2°58.206 245 0.3 220 13.8
2006-12-12 09:06:40 51°21.677 2°58.205 246.1 0.2 241 13.7
2006-12-12 09:06:45 51°21.676 2°58.205 245.8 0.2 161 13.4
2006-12-12 09:06:50 51°21.676 2°58.205 245.8 0.1 45 13.4
2006-12-12 09:06:54 51°21.676 2°58.205 245 0.1 160 13.4
2006-12-12 09:07:00 51°21.676 2°58.205 245.3 0.1 264 13.6
2006-12-12 09:07:05 51°21.676 2°58.205 244.7 0.2 169 13.8
2006-12-12 09:07:10 51°21.676 2°58.205 245.3 0.1 164 14
2006-12-12 09:07:14 51°21.676 2°58.205 245.1 0.1 342 14
2006-12-12 09:07:20 51°21.676 2°58.205 244.8 0.1 152 14
2006-12-12 09:07:25 51°21.676 2°58.206 244.8 0.2 137 14
2006-12-12 09:07:30 51°21.676 2°58.206 245.5 0.3 142 14
2006-12-12 09:07:34 51°21.676 2°58.206 246.3 0.2 342 14
2006-12-12 09:07:40 51°21.676 2°58.206 247.1 0.1 265 14
2006-12-12 09:07:45 51°21.675 2°58.206 247.5 0.2 198 14.2
2006-12-12 09:07:50 51°21.675 2°58.206 248.2 0.2 157 14.1
2006-12-12 09:07:55 51°21.675 2°58.206 248.2 0.1 122 13.9
2006-12-12 09:08:00 51°21.676 2°58.207 248.1 0.1 42 13.8
2006-12-12 09:08:05 51°21.675 2°58.207 248.2 0.2 121 13.8
2006-12-12 09:08:10 51°21.675 2°58.208 248.7 0.4 113 13.9
2006-12-12 09:08:15 51°21.675 2°58.21 248.5 0.6 103 13.8
2006-12-12 09:08:20 51°21.675 2°58.211 247.5 0.6 89 13.4
2006-12-12 09:08:24 51°21.675 2°58.211 245.4 0.5 62 13.2
2006-12-12 09:08:30 51°21.675 2°58.213 243.7 0.6 80 13.4
2006-12-12 09:08:35 51°21.675 2°58.214 242 0.7 85 13.5
2006-12-12 09:08:40 51°21.675 2°58.215 240.5 0.6 69 13.7
2006-12-12 09:08:44 51°21.675 2°58.216 238.7 0.5 65 13.8
2006-12-12 09:08:50 51°21.675 2°58.217 237.1 0.5 84 13.9
2006-12-12 09:08:54 51°21.675 2°58.218 236 0.5 81 14
2006-12-12 09:09:00 51°21.675 2°58.22 234.9 0.5 85 14
2006-12-12 09:09:05 51°21.675 2°58.221 232.9 0.4 86 14
2006-12-12 09:09:09 51°21.675 2°58.221 231.2 0.7 119 14
2006-12-12 09:09:15 51°21.675 2°58.222 231.4 0.3 94 13.7
2006-12-12 09:09:20 51°21.675 2°58.223 230.1 0.4 91 13.5
2006-12-12 09:09:25 51°21.675 2°58.224 228.1 0.4 105 13.4
2006-12-12 09:09:30 51°21.675 2°58.225 226.5 0.2 117 13.7
2006-12-12 09:09:34 51°21.674 2°58.226 225 0.5 136 13.9